Terminal Aerodrome Forecast
Issued by NWS Kansas City/Pleasant Hill, MO

Home | Current Version | Previous Version | Text Only | Print | Product List | Glossary On
Versions: 1 2 3 4 5 6 7 8 9 10 11 12 13 14 15 16 17 18 19 20 21 22 23
000
FTUS43 KEAX 261120
TAFMCI
TAF
KMCI 261120Z 2612/2712 18010KT P6SM VCTS BKN050CB
     FM261500 19011KT P6SM SCT035 BKN100
     FM262000 17014G22KT P6SM VCTS BKN040CB
      TEMPO 2700/2704 3SM -TSRA BKN025CB=

USA.gov is the U.S. government's official web portal to all federal, state and local government web resources and services.